sensor_id;sensor_type;location;lat;lon;timestamp;temperature;humidity
69464;DHT22;56665;41.106;16.688;2023-04-24T00:02:27;16.55;68.08
69464;DHT22;56665;41.106;16.688;2023-04-24T00:05:30;16.53;68.24
69464;DHT22;56665;41.106;16.688;2023-04-24T00:08:35;16.56;68.27
69464;DHT22;56665;41.106;16.688;2023-04-24T00:11:39;16.60;67.87
69464;DHT22;56665;41.106;16.688;2023-04-24T00:14:43;16.65;67.55
69464;DHT22;56665;41.106;16.688;2023-04-24T00:17:46;16.66;67.46
69464;DHT22;56665;41.106;16.688;2023-04-24T00:20:51;16.66;67.32
69464;DHT22;56665;41.106;16.688;2023-04-24T00:23:55;16.65;67.59
69464;DHT22;56665;41.106;16.688;2023-04-24T00:26:59;16.62;67.83
69464;DHT22;56665;41.106;16.688;2023-04-24T00:30:04;16.63;67.82
69464;DHT22;56665;41.106;16.688;2023-04-24T00:33:08;16.60;67.59
69464;DHT22;56665;41.106;16.688;2023-04-24T00:36:13;16.58;67.46
69464;DHT22;56665;41.106;16.688;2023-04-24T00:39:16;16.62;66.49
69464;DHT22;56665;41.106;16.688;2023-04-24T00:42:20;16.69;66.04
69464;DHT22;56665;41.106;16.688;2023-04-24T00:45:25;16.70;65.71
69464;DHT22;56665;41.106;16.688;2023-04-24T00:48:29;16.69;65.42
69464;DHT22;56665;41.106;16.688;2023-04-24T00:51:34;16.72;65.15
69464;DHT22;56665;41.106;16.688;2023-04-24T00:54:39;16.72;65.20
69464;DHT22;56665;41.106;16.688;2023-04-24T00:57:44;16.73;65.07
69464;DHT22;56665;41.106;16.688;2023-04-24T01:00:50;16.70;65.30
69464;DHT22;56665;41.106;16.688;2023-04-24T01:03:57;16.62;65.40
69464;DHT22;56665;41.106;16.688;2023-04-24T01:07:01;16.65;65.48
69464;DHT22;56665;41.106;16.688;2023-04-24T01:10:05;16.62;65.38
69464;DHT22;56665;41.106;16.688;2023-04-24T01:13:10;16.63;65.48
69464;DHT22;56665;41.106;16.688;2023-04-24T01:16:14;16.62;65.59
69464;DHT22;56665;41.106;16.688;2023-04-24T01:19:20;16.59;65.76
69464;DHT22;56665;41.106;16.688;2023-04-24T01:22:24;16.59;65.75
69464;DHT22;56665;41.106;16.688;2023-04-24T01:25:28;16.49;66.07
69464;DHT22;56665;41.106;16.688;2023-04-24T01:28:34;16.45;66.31
69464;DHT22;56665;41.106;16.688;2023-04-24T01:31:39;16.39;66.62
69464;DHT22;56665;41.106;16.688;2023-04-24T01:34:43;16.37;66.92
69464;DHT22;56665;41.106;16.688;2023-04-24T01:37:49;16.31;67.09
69464;DHT22;56665;41.106;16.688;2023-04-24T01:40:53;16.21;67.24
69464;DHT22;56665;41.106;16.688;2023-04-24T01:43:58;16.22;67.44
69464;DHT22;56665;41.106;16.688;2023-04-24T01:47:03;16.18;67.59
69464;DHT22;56665;41.106;16.688;2023-04-24T01:50:09;16.17;67.76
69464;DHT22;56665;41.106;16.688;2023-04-24T01:53:13;16.14;67.77
69464;DHT22;56665;41.106;16.688;2023-04-24T01:56:17;16.11;67.94
69464;DHT22;56665;41.106;16.688;2023-04-24T01:59:22;16.08;68.04
69464;DHT22;56665;41.106;16.688;2023-04-24T02:02:26;16.06;67.96
69464;DHT22;56665;41.106;16.688;2023-04-24T02:05:34;16.01;67.97
69464;DHT22;56665;41.106;16.688;2023-04-24T02:08:41;15.96;67.73
69464;DHT22;56665;41.106;16.688;2023-04-24T02:11:45;15.96;67.60
69464;DHT22;56665;41.106;16.688;2023-04-24T02:14:49;15.93;67.67
69464;DHT22;56665;41.106;16.688;2023-04-24T02:17:53;15.84;67.71
69464;DHT22;56665;41.106;16.688;2023-04-24T02:20:56;15.84;67.80
69464;DHT22;56665;41.106;16.688;2023-04-24T02:24:00;15.77;67.80
69464;DHT22;56665;41.106;16.688;2023-04-24T02:27:04;15.74;67.72
69464;DHT22;56665;41.106;16.688;2023-04-24T02:30:08;15.73;67.49
69464;DHT22;56665;41.106;16.688;2023-04-24T02:33:14;15.71;67.41
69464;DHT22;56665;41.106;16.688;2023-04-24T02:36:17;15.70;67.30
69464;DHT22;56665;41.106;16.688;2023-04-24T02:39:21;15.66;66.90
69464;DHT22;56665;41.106;16.688;2023-04-24T02:42:25;15.69;66.67
69464;DHT22;56665;41.106;16.688;2023-04-24T02:45:29;15.66;66.48
69464;DHT22;56665;41.106;16.688;2023-04-24T02:48:33;15.65;66.03
69464;DHT22;56665;41.106;16.688;2023-04-24T02:51:37;15.62;66.44
69464;DHT22;56665;41.106;16.688;2023-04-24T02:54:44;15.56;66.56
69464;DHT22;56665;41.106;16.688;2023-04-24T02:57:49;15.53;66.78
69464;DHT22;56665;41.106;16.688;2023-04-24T03:00:54;15.56;66.65
69464;DHT22;56665;41.106;16.688;2023-04-24T03:03:59;15.55;66.28
69464;DHT22;56665;41.106;16.688;2023-04-24T03:07:03;15.60;66.09
69464;DHT22;56665;41.106;16.688;2023-04-24T03:10:08;15.59;66.00
69464;DHT22;56665;41.106;16.688;2023-04-24T03:13:12;15.59;65.60
69464;DHT22;56665;41.106;16.688;2023-04-24T03:16:17;15.57;65.84
69464;DHT22;56665;41.106;16.688;2023-04-24T03:19:20;15.57;64.70
69464;DHT22;56665;41.106;16.688;2023-04-24T03:22:36;15.62;64.31
69464;DHT22;56665;41.106;16.688;2023-04-24T03:25:44;15.63;63.85
69464;DHT22;56665;41.106;16.688;2023-04-24T03:28:49;15.67;63.65
69464;DHT22;56665;41.106;16.688;2023-04-24T03:31:54;15.63;63.86
69464;DHT22;56665;41.106;16.688;2023-04-24T03:34:58;15.65;63.38
69464;DHT22;56665;41.106;16.688;2023-04-24T03:38:02;15.65;63.26
69464;DHT22;56665;41.106;16.688;2023-04-24T03:41:19;15.60;63.53
69464;DHT22;56665;41.106;16.688;2023-04-24T03:44:27;15.60;64.25
69464;DHT22;56665;41.106;16.688;2023-04-24T03:47:31;15.59;64.00
69464;DHT22;56665;41.106;16.688;2023-04-24T03:50:38;15.59;64.13
69464;DHT22;56665;41.106;16.688;2023-04-24T03:53:43;15.62;64.24
69464;DHT22;56665;41.106;16.688;2023-04-24T03:56:49;15.66;63.56
69464;DHT22;56665;41.106;16.688;2023-04-24T03:59:55;15.70;63.41
69464;DHT22;56665;41.106;16.688;2023-04-24T04:02:59;15.71;63.28
69464;DHT22;56665;41.106;16.688;2023-04-24T04:06:03;15.73;63.08
69464;DHT22;56665;41.106;16.688;2023-04-24T04:09:08;15.73;62.93
69464;DHT22;56665;41.106;16.688;2023-04-24T04:12:13;15.76;63.10
69464;DHT22;56665;41.106;16.688;2023-04-24T04:15:17;15.69;63.64
69464;DHT22;56665;41.106;16.688;2023-04-24T04:18:21;15.65;64.09
69464;DHT22;56665;41.106;16.688;2023-04-24T04:21:25;15.65;64.04
69464;DHT22;56665;41.106;16.688;2023-04-24T04:24:37;15.70;63.62
69464;DHT22;56665;41.106;16.688;2023-04-24T04:27:45;15.77;63.37
69464;DHT22;56665;41.106;16.688;2023-04-24T04:30:50;15.83;63.31
69464;DHT22;56665;41.106;16.688;2023-04-24T04:33:58;15.96;62.97
69464;DHT22;56665;41.106;16.688;2023-04-24T04:37:02;16.03;62.66
69464;DHT22;56665;41.106;16.688;2023-04-24T04:40:42;16.13;61.56
69464;DHT22;56665;41.106;16.688;2023-04-24T04:43:48;16.22;61.00
69464;DHT22;56665;41.106;16.688;2023-04-24T04:46:55;16.35;60.25
69464;DHT22;56665;41.106;16.688;2023-04-24T04:50:05;16.41;60.42
69464;DHT22;56665;41.106;16.688;2023-04-24T04:53:11;16.41;60.50
69464;DHT22;56665;41.106;16.688;2023-04-24T04:56:16;16.46;60.27
69464;DHT22;56665;41.106;16.688;2023-04-24T04:59:23;16.60;60.30
69464;DHT22;56665;41.106;16.688;2023-04-24T05:02:33;16.72;59.94
69464;DHT22;56665;41.106;16.688;2023-04-24T05:05:36;16.89;59.07
69464;DHT22;56665;41.106;16.688;2023-04-24T05:08:45;17.06;57.47
69464;DHT22;56665;41.106;16.688;2023-04-24T05:12:00;17.24;56.69
69464;DHT22;56665;41.106;16.688;2023-04-24T05:15:07;17.31;56.70
69464;DHT22;56665;41.106;16.688;2023-04-24T05:18:11;17.38;56.51
69464;DHT22;56665;41.106;16.688;2023-04-24T05:21:15;17.49;56.00
69464;DHT22;56665;41.106;16.688;2023-04-24T05:24:22;17.51;56.10
69464;DHT22;56665;41.106;16.688;2023-04-24T05:27:46;17.42;57.28
69464;DHT22;56665;41.106;16.688;2023-04-24T05:30:53;17.52;57.26
69464;DHT22;56665;41.106;16.688;2023-04-24T05:33:57;17.58;57.56
69464;DHT22;56665;41.106;16.688;2023-04-24T05:37:03;17.74;57.47
69464;DHT22;56665;41.106;16.688;2023-04-24T05:40:11;17.93;56.61
69464;DHT22;56665;41.106;16.688;2023-04-24T05:43:16;18.18;56.17
69464;DHT22;56665;41.106;16.688;2023-04-24T05:46:20;18.43;55.85
69464;DHT22;56665;41.106;16.688;2023-04-24T05:49:24;18.77;55.62
69464;DHT22;56665;41.106;16.688;2023-04-24T05:52:28;19.08;55.21
69464;DHT22;56665;41.106;16.688;2023-04-24T05:55:31;19.26;54.75
69464;DHT22;56665;41.106;16.688;2023-04-24T05:58:37;19.42;54.33
69464;DHT22;56665;41.106;16.688;2023-04-24T06:01:41;19.61;54.47
69464;DHT22;56665;41.106;16.688;2023-04-24T06:04:51;19.82;54.32
69464;DHT22;56665;41.106;16.688;2023-04-24T06:07:55;19.88;54.14
69464;DHT22;56665;41.106;16.688;2023-04-24T06:11:02;19.94;54.38
69464;DHT22;56665;41.106;16.688;2023-04-24T06:14:06;19.98;54.49
69464;DHT22;56665;41.106;16.688;2023-04-24T06:17:16;20.14;54.55
69464;DHT22;56665;41.106;16.688;2023-04-24T06:20:20;20.18;54.84
69464;DHT22;56665;41.106;16.688;2023-04-24T06:23:24;20.18;55.30
69464;DHT22;56665;41.106;16.688;2023-04-24T06:26:28;20.16;55.46
69464;DHT22;56665;41.106;16.688;2023-04-24T06:29:33;20.22;55.37
69464;DHT22;56665;41.106;16.688;2023-04-24T06:32:37;20.29;55.10
69464;DHT22;56665;41.106;16.688;2023-04-24T06:35:41;20.30;54.71
69464;DHT22;56665;41.106;16.688;2023-04-24T06:38:44;20.38;54.70
69464;DHT22;56665;41.106;16.688;2023-04-24T06:41:48;20.46;54.37
69464;DHT22;56665;41.106;16.688;2023-04-24T06:44:57;20.56;54.09
69464;DHT22;56665;41.106;16.688;2023-04-24T06:48:01;20.79;53.68
69464;DHT22;56665;41.106;16.688;2023-04-24T06:51:05;21.03;52.79
69464;DHT22;56665;41.106;16.688;2023-04-24T06:54:09;21.32;52.27
69464;DHT22;56665;41.106;16.688;2023-04-24T06:57:13;21.48;51.89
69464;DHT22;56665;41.106;16.688;2023-04-24T07:00:17;21.73;51.60
69464;DHT22;56665;41.106;16.688;2023-04-24T07:03:21;21.61;51.92
69464;DHT22;56665;41.106;16.688;2023-04-24T07:06:25;21.18;53.29
69464;DHT22;56665;41.106;16.688;2023-04-24T07:09:28;20.66;57.51
69464;DHT22;56665;41.106;16.688;2023-04-24T07:12:33;20.07;62.61
69464;DHT22;56665;41.106;16.688;2023-04-24T07:15:39;19.09;69.14
69464;DHT22;56665;41.106;16.688;2023-04-24T07:18:44;18.37;71.02
69464;DHT22;56665;41.106;16.688;2023-04-24T07:21:48;18.17;73.46
69464;DHT22;56665;41.106;16.688;2023-04-24T07:24:52;18.54;68.88
69464;DHT22;56665;41.106;16.688;2023-04-24T07:27:55;20.22;66.52
69464;DHT22;56665;41.106;16.688;2023-04-24T07:30:59;21.93;62.45
69464;DHT22;56665;41.106;16.688;2023-04-24T07:34:03;23.20;57.87
69464;DHT22;56665;41.106;16.688;2023-04-24T07:37:06;24.41;55.21
69464;DHT22;56665;41.106;16.688;2023-04-24T07:40:11;25.03;53.84
69464;DHT22;56665;41.106;16.688;2023-04-24T07:43:16;24.26;53.14
69464;DHT22;56665;41.106;16.688;2023-04-24T07:46:21;23.06;52.17
69464;DHT22;56665;41.106;16.688;2023-04-24T07:49:26;22.13;52.63
69464;DHT22;56665;41.106;16.688;2023-04-24T07:52:31;21.31;52.30
69464;DHT22;56665;41.106;16.688;2023-04-24T07:55:35;20.80;54.29
69464;DHT22;56665;41.106;16.688;2023-04-24T07:58:38;20.60;56.30
69464;DHT22;56665;41.106;16.688;2023-04-24T08:01:42;20.53;55.92
69464;DHT22;56665;41.106;16.688;2023-04-24T08:04:46;20.45;57.03
69464;DHT22;56665;41.106;16.688;2023-04-24T08:07:50;20.59;56.20
69464;DHT22;56665;41.106;16.688;2023-04-24T08:10:55;20.96;55.43
69464;DHT22;56665;41.106;16.688;2023-04-24T08:13:59;21.10;53.80
69464;DHT22;56665;41.106;16.688;2023-04-24T08:17:02;20.91;55.17
69464;DHT22;56665;41.106;16.688;2023-04-24T08:20:08;20.77;55.26
69464;DHT22;56665;41.106;16.688;2023-04-24T08:23:17;20.59;56.14
69464;DHT22;56665;41.106;16.688;2023-04-24T08:26:22;20.40;57.34
69464;DHT22;56665;41.106;16.688;2023-04-24T08:29:26;20.19;57.74
69464;DHT22;56665;41.106;16.688;2023-04-24T08:32:30;20.22;59.05
69464;DHT22;56665;41.106;16.688;2023-04-24T08:35:35;20.47;58.22
69464;DHT22;56665;41.106;16.688;2023-04-24T08:38:39;20.94;56.59
69464;DHT22;56665;41.106;16.688;2023-04-24T08:41:44;21.46;55.89
69464;DHT22;56665;41.106;16.688;2023-04-24T08:44:50;22.18;53.07
69464;DHT22;56665;41.106;16.688;2023-04-24T08:47:54;22.98;51.00
69464;DHT22;56665;41.106;16.688;2023-04-24T08:50:58;23.22;49.40
69464;DHT22;56665;41.106;16.688;2023-04-24T08:54:04;23.22;48.60
69464;DHT22;56665;41.106;16.688;2023-04-24T08:57:08;23.09;48.31
69464;DHT22;56665;41.106;16.688;2023-04-24T09:00:17;23.11;48.66
69464;DHT22;56665;41.106;16.688;2023-04-24T09:03:21;23.05;48.26
69464;DHT22;56665;41.106;16.688;2023-04-24T09:06:25;23.03;48.88
69464;DHT22;56665;41.106;16.688;2023-04-24T09:09:32;22.94;49.44
69464;DHT22;56665;41.106;16.688;2023-04-24T09:12:36;23.20;49.09
69464;DHT22;56665;41.106;16.688;2023-04-24T09:15:40;23.33;48.66
69464;DHT22;56665;41.106;16.688;2023-04-24T09:18:44;23.43;49.20
69464;DHT22;56665;41.106;16.688;2023-04-24T09:21:49;23.32;49.39
69464;DHT22;56665;41.106;16.688;2023-04-24T09:25:04;23.02;49.72
69464;DHT22;56665;41.106;16.688;2023-04-24T09:28:09;23.05;50.11
69464;DHT22;56665;41.106;16.688;2023-04-24T09:31:15;23.19;49.75
69464;DHT22;56665;41.106;16.688;2023-04-24T09:34:26;23.33;49.73
69464;DHT22;56665;41.106;16.688;2023-04-24T09:37:35;23.42;49.00
69464;DHT22;56665;41.106;16.688;2023-04-24T09:40:39;23.55;48.44
69464;DHT22;56665;41.106;16.688;2023-04-24T09:43:43;24.09;47.56
69464;DHT22;56665;41.106;16.688;2023-04-24T09:46:57;24.52;46.78
69464;DHT22;56665;41.106;16.688;2023-04-24T09:50:12;24.66;46.96
69464;DHT22;56665;41.106;16.688;2023-04-24T09:53:16;24.60;47.12
69464;DHT22;56665;41.106;16.688;2023-04-24T09:56:32;24.73;47.27
69464;DHT22;56665;41.106;16.688;2023-04-24T09:59:42;24.91;46.87
69464;DHT22;56665;41.106;16.688;2023-04-24T10:06:03;24.90;45.84
69464;DHT22;56665;41.106;16.688;2023-04-24T10:09:12;24.64;45.89
69464;DHT22;56665;41.106;16.688;2023-04-24T10:12:17;24.57;46.07
69464;DHT22;56665;41.106;16.688;2023-04-24T10:15:22;24.19;46.86
69464;DHT22;56665;41.106;16.688;2023-04-24T10:18:26;24.18;46.94
69464;DHT22;56665;41.106;16.688;2023-04-24T10:21:31;24.16;47.30
69464;DHT22;56665;41.106;16.688;2023-04-24T10:24:35;23.91;47.33
69464;DHT22;56665;41.106;16.688;2023-04-24T10:27:41;24.19;47.61
69464;DHT22;56665;41.106;16.688;2023-04-24T10:30:47;24.33;46.95
69464;DHT22;56665;41.106;16.688;2023-04-24T10:33:52;24.28;46.51
69464;DHT22;56665;41.106;16.688;2023-04-24T10:36:57;24.14;46.79
69464;DHT22;56665;41.106;16.688;2023-04-24T10:40:01;23.75;47.43
69464;DHT22;56665;41.106;16.688;2023-04-24T10:43:06;23.87;47.14
69464;DHT22;56665;41.106;16.688;2023-04-24T10:46:19;24.18;46.30
69464;DHT22;56665;41.106;16.688;2023-04-24T10:49:31;24.66;44.30
69464;DHT22;56665;41.106;16.688;2023-04-24T10:52:46;25.46;42.98
69464;DHT22;56665;41.106;16.688;2023-04-24T10:56:05;26.13;41.83
69464;DHT22;56665;41.106;16.688;2023-04-24T10:59:10;26.52;41.47
69464;DHT22;56665;41.106;16.688;2023-04-24T11:02:15;26.51;40.76
69464;DHT22;56665;41.106;16.688;2023-04-24T11:05:19;26.29;40.86
69464;DHT22;56665;41.106;16.688;2023-04-24T11:11:35;25.81;41.54
69464;DHT22;56665;41.106;16.688;2023-04-24T11:17:59;26.34;40.49
69464;DHT22;56665;41.106;16.688;2023-04-24T11:21:10;26.37;40.09
69464;DHT22;56665;41.106;16.688;2023-04-24T11:24:48;26.33;40.48
69464;DHT22;56665;41.106;16.688;2023-04-24T11:28:06;26.48;40.38
69464;DHT22;56665;41.106;16.688;2023-04-24T11:31:44;26.41;40.58
69464;DHT22;56665;41.106;16.688;2023-04-24T11:34:58;26.61;39.50
69464;DHT22;56665;41.106;16.688;2023-04-24T11:38:02;26.55;38.86
69464;DHT22;56665;41.106;16.688;2023-04-24T11:41:07;26.20;39.66
69464;DHT22;56665;41.106;16.688;2023-04-24T11:44:13;26.27;39.73
69464;DHT22;56665;41.106;16.688;2023-04-24T11:47:18;25.93;40.06
69464;DHT22;56665;41.106;16.688;2023-04-24T11:50:24;25.41;40.34
69464;DHT22;56665;41.106;16.688;2023-04-24T11:53:31;24.88;39.94
69464;DHT22;56665;41.106;16.688;2023-04-24T11:56:34;24.36;41.52
69464;DHT22;56665;41.106;16.688;2023-04-24T11:59:40;23.73;43.52
69464;DHT22;56665;41.106;16.688;2023-04-24T12:02:44;23.26;44.54
69464;DHT22;56665;41.106;16.688;2023-04-24T12:05:48;22.81;45.00
69464;DHT22;56665;41.106;16.688;2023-04-24T12:08:52;22.60;48.21
69464;DHT22;56665;41.106;16.688;2023-04-24T12:11:58;22.58;48.06
69464;DHT22;56665;41.106;16.688;2023-04-24T12:15:07;22.37;47.84
69464;DHT22;56665;41.106;16.688;2023-04-24T12:18:12;22.18;49.05
69464;DHT22;56665;41.106;16.688;2023-04-24T12:21:20;21.99;49.68
69464;DHT22;56665;41.106;16.688;2023-04-24T12:24:24;21.73;50.62
69464;DHT22;56665;41.106;16.688;2023-04-24T12:27:31;21.56;51.29
69464;DHT22;56665;41.106;16.688;2023-04-24T12:30:43;21.63;55.30
69464;DHT22;56665;41.106;16.688;2023-04-24T12:33:48;21.69;56.46
69464;DHT22;56665;41.106;16.688;2023-04-24T12:36:51;21.96;56.17
69464;DHT22;56665;41.106;16.688;2023-04-24T12:40:07;21.95;53.14
69464;DHT22;56665;41.106;16.688;2023-04-24T12:43:19;22.10;53.49
69464;DHT22;56665;41.106;16.688;2023-04-24T12:46:23;22.38;53.51
69464;DHT22;56665;41.106;16.688;2023-04-24T12:49:27;22.72;52.79
69464;DHT22;56665;41.106;16.688;2023-04-24T12:52:32;23.37;51.60
69464;DHT22;56665;41.106;16.688;2023-04-24T12:55:36;24.01;50.32
69464;DHT22;56665;41.106;16.688;2023-04-24T12:58:40;24.83;48.95
69464;DHT22;56665;41.106;16.688;2023-04-24T13:01:47;25.78;46.99
69464;DHT22;56665;41.106;16.688;2023-04-24T13:04:51;26.10;45.88
69464;DHT22;56665;41.106;16.688;2023-04-24T13:07:57;25.88;46.47
69464;DHT22;56665;41.106;16.688;2023-04-24T13:11:00;26.09;45.36
69464;DHT22;56665;41.106;16.688;2023-04-24T13:14:04;26.14;46.03
69464;DHT22;56665;41.106;16.688;2023-04-24T13:17:08;26.26;47.99
69464;DHT22;56665;41.106;16.688;2023-04-24T13:20:13;25.55;47.62
69464;DHT22;56665;41.106;16.688;2023-04-24T13:23:17;25.32;47.05
69464;DHT22;56665;41.106;16.688;2023-04-24T13:26:21;24.96;47.30
69464;DHT22;56665;41.106;16.688;2023-04-24T13:29:24;24.38;48.24
69464;DHT22;56665;41.106;16.688;2023-04-24T13:32:28;24.01;49.29
69464;DHT22;56665;41.106;16.688;2023-04-24T13:35:33;24.01;49.85
69464;DHT22;56665;41.106;16.688;2023-04-24T13:38:38;24.76;48.39
69464;DHT22;56665;41.106;16.688;2023-04-24T13:41:41;25.93;45.58
69464;DHT22;56665;41.106;16.688;2023-04-24T13:44:46;26.73;43.69
69464;DHT22;56665;41.106;16.688;2023-04-24T13:47:49;26.71;43.33
69464;DHT22;56665;41.106;16.688;2023-04-24T13:50:53;26.29;44.07
69464;DHT22;56665;41.106;16.688;2023-04-24T13:53:57;25.66;45.04
69464;DHT22;56665;41.106;16.688;2023-04-24T13:57:01;25.08;45.83
69464;DHT22;56665;41.106;16.688;2023-04-24T14:00:06;24.57;44.88
69464;DHT22;56665;41.106;16.688;2023-04-24T14:03:10;24.28;45.34
69464;DHT22;56665;41.106;16.688;2023-04-24T14:06:15;24.38;45.52
69464;DHT22;56665;41.106;16.688;2023-04-24T14:09:19;24.51;45.33
69464;DHT22;56665;41.106;16.688;2023-04-24T14:12:22;25.32;43.86
69464;DHT22;56665;41.106;16.688;2023-04-24T14:15:26;26.02;42.34
69464;DHT22;56665;41.106;16.688;2023-04-24T14:18:30;25.63;43.02
69464;DHT22;56665;41.106;16.688;2023-04-24T14:21:35;24.83;44.48
69464;DHT22;56665;41.106;16.688;2023-04-24T14:24:39;24.70;45.02
69464;DHT22;56665;41.106;16.688;2023-04-24T14:27:43;25.07;43.79
69464;DHT22;56665;41.106;16.688;2023-04-24T14:30:47;25.85;43.06
69464;DHT22;56665;41.106;16.688;2023-04-24T14:33:53;26.04;43.05
69464;DHT22;56665;41.106;16.688;2023-04-24T14:36:56;25.79;43.00
69464;DHT22;56665;41.106;16.688;2023-04-24T14:40:03;25.49;43.13
69464;DHT22;56665;41.106;16.688;2023-04-24T14:43:08;25.81;42.87
69464;DHT22;56665;41.106;16.688;2023-04-24T14:46:12;26.09;42.76
69464;DHT22;56665;41.106;16.688;2023-04-24T14:49:16;26.29;42.17
69464;DHT22;56665;41.106;16.688;2023-04-24T14:52:20;26.09;45.27
69464;DHT22;56665;41.106;16.688;2023-04-24T14:55:25;24.94;48.69
69464;DHT22;56665;41.106;16.688;2023-04-24T14:58:29;23.23;53.53
69464;DHT22;56665;41.106;16.688;2023-04-24T15:01:33;22.79;55.40
69464;DHT22;56665;41.106;16.688;2023-04-24T15:04:37;21.88;57.66
69464;DHT22;56665;41.106;16.688;2023-04-24T15:07:42;20.15;63.47
69464;DHT22;56665;41.106;16.688;2023-04-24T15:10:46;19.71;65.66
69464;DHT22;56665;41.106;16.688;2023-04-24T15:13:50;19.53;65.73
69464;DHT22;56665;41.106;16.688;2023-04-24T15:16:55;19.13;66.77
69464;DHT22;56665;41.106;16.688;2023-04-24T15:19:59;19.03;66.18
69464;DHT22;56665;41.106;16.688;2023-04-24T15:23:10;18.67;67.33
69464;DHT22;56665;41.106;16.688;2023-04-24T15:26:13;18.98;65.87
69464;DHT22;56665;41.106;16.688;2023-04-24T15:29:18;18.77;66.04
69464;DHT22;56665;41.106;16.688;2023-04-24T15:32:22;18.86;66.33
69464;DHT22;56665;41.106;16.688;2023-04-24T15:35:28;19.00;65.52
69464;DHT22;56665;41.106;16.688;2023-04-24T15:38:31;19.50;64.42
69464;DHT22;56665;41.106;16.688;2023-04-24T15:41:35;19.73;63.51
69464;DHT22;56665;41.106;16.688;2023-04-24T15:44:39;19.00;65.15
69464;DHT22;56665;41.106;16.688;2023-04-24T15:47:44;19.12;63.88
69464;DHT22;56665;41.106;16.688;2023-04-24T15:50:49;18.86;64.37
69464;DHT22;56665;41.106;16.688;2023-04-24T15:53:53;18.71;65.17
69464;DHT22;56665;41.106;16.688;2023-04-24T15:56:57;18.69;64.59
69464;DHT22;56665;41.106;16.688;2023-04-24T16:00:02;18.84;64.06
69464;DHT22;56665;41.106;16.688;2023-04-24T16:03:15;18.69;64.73
69464;DHT22;56665;41.106;16.688;2023-04-24T16:06:19;18.54;65.19
69464;DHT22;56665;41.106;16.688;2023-04-24T16:09:22;18.53;65.13
69464;DHT22;56665;41.106;16.688;2023-04-24T16:12:26;18.21;67.13
69464;DHT22;56665;41.106;16.688;2023-04-24T16:15:33;18.31;66.51
69464;DHT22;56665;41.106;16.688;2023-04-24T16:18:38;18.38;65.79
69464;DHT22;56665;41.106;16.688;2023-04-24T16:21:42;18.47;65.86
69464;DHT22;56665;41.106;16.688;2023-04-24T16:24:46;18.54;65.70
69464;DHT22;56665;41.106;16.688;2023-04-24T16:27:50;18.47;66.25
69464;DHT22;56665;41.106;16.688;2023-04-24T16:30:54;18.34;66.31
69464;DHT22;56665;41.106;16.688;2023-04-24T16:33:58;18.20;67.20
69464;DHT22;56665;41.106;16.688;2023-04-24T16:37:02;18.06;67.87
69464;DHT22;56665;41.106;16.688;2023-04-24T16:40:08;18.09;68.02
69464;DHT22;56665;41.106;16.688;2023-04-24T16:43:15;18.10;68.32
69464;DHT22;56665;41.106;16.688;2023-04-24T16:46:20;18.00;68.69
69464;DHT22;56665;41.106;16.688;2023-04-24T16:49:25;18.09;69.05
69464;DHT22;56665;41.106;16.688;2023-04-24T16:52:34;18.13;68.13
69464;DHT22;56665;41.106;16.688;2023-04-24T16:55:38;18.13;67.88
69464;DHT22;56665;41.106;16.688;2023-04-24T16:58:42;18.21;68.03
69464;DHT22;56665;41.106;16.688;2023-04-24T17:01:46;18.23;67.86
69464;DHT22;56665;41.106;16.688;2023-04-24T17:04:51;18.30;67.61
69464;DHT22;56665;41.106;16.688;2023-04-24T17:07:55;18.21;68.32
69464;DHT22;56665;41.106;16.688;2023-04-24T17:10:59;18.24;68.55
69464;DHT22;56665;41.106;16.688;2023-04-24T17:14:02;18.23;68.26
69464;DHT22;56665;41.106;16.688;2023-04-24T17:17:07;18.23;68.32
69464;DHT22;56665;41.106;16.688;2023-04-24T17:20:11;18.20;68.02
69464;DHT22;56665;41.106;16.688;2023-04-24T17:23:15;18.23;66.11
69464;DHT22;56665;41.106;16.688;2023-04-24T17:26:19;18.27;65.20
69464;DHT22;56665;41.106;16.688;2023-04-24T17:29:24;18.20;67.81
69464;DHT22;56665;41.106;16.688;2023-04-24T17:32:28;18.13;68.62
69464;DHT22;56665;41.106;16.688;2023-04-24T17:35:32;18.09;67.74
69464;DHT22;56665;41.106;16.688;2023-04-24T17:38:36;18.05;66.87
69464;DHT22;56665;41.106;16.688;2023-04-24T17:41:39;18.05;66.55
69464;DHT22;56665;41.106;16.688;2023-04-24T17:44:43;18.03;66.17
69464;DHT22;56665;41.106;16.688;2023-04-24T17:47:48;18.02;65.66
69464;DHT22;56665;41.106;16.688;2023-04-24T17:50:53;18.05;64.73
69464;DHT22;56665;41.106;16.688;2023-04-24T17:53:57;18.02;62.71
69464;DHT22;56665;41.106;16.688;2023-04-24T17:57:00;17.99;61.27
69464;DHT22;56665;41.106;16.688;2023-04-24T18:00:04;17.99;60.33
69464;DHT22;56665;41.106;16.688;2023-04-24T18:03:09;17.96;60.00
69464;DHT22;56665;41.106;16.688;2023-04-24T18:06:13;17.95;59.64
69464;DHT22;56665;41.106;16.688;2023-04-24T18:09:19;17.90;59.51
69464;DHT22;56665;41.106;16.688;2023-04-24T18:12:24;17.90;59.00
69464;DHT22;56665;41.106;16.688;2023-04-24T18:15:27;17.89;58.88
69464;DHT22;56665;41.106;16.688;2023-04-24T18:18:31;17.83;59.03
69464;DHT22;56665;41.106;16.688;2023-04-24T18:21:35;17.81;59.22
69464;DHT22;56665;41.106;16.688;2023-04-24T18:24:39;17.82;58.92
69464;DHT22;56665;41.106;16.688;2023-04-24T18:27:43;17.76;59.06
69464;DHT22;56665;41.106;16.688;2023-04-24T18:30:47;17.72;59.58
69464;DHT22;56665;41.106;16.688;2023-04-24T18:33:50;17.69;59.63
69464;DHT22;56665;41.106;16.688;2023-04-24T18:36:57;17.64;60.00
69464;DHT22;56665;41.106;16.688;2023-04-24T18:40:01;17.58;59.95
69464;DHT22;56665;41.106;16.688;2023-04-24T18:43:05;17.57;60.22
69464;DHT22;56665;41.106;16.688;2023-04-24T18:46:09;17.52;60.21
69464;DHT22;56665;41.106;16.688;2023-04-24T18:49:13;17.49;60.10
69464;DHT22;56665;41.106;16.688;2023-04-24T18:52:20;17.45;60.40
69464;DHT22;56665;41.106;16.688;2023-04-24T18:55:24;17.42;60.51
69464;DHT22;56665;41.106;16.688;2023-04-24T18:58:28;17.44;60.24
69464;DHT22;56665;41.106;16.688;2023-04-24T19:01:32;17.47;60.33
69464;DHT22;56665;41.106;16.688;2023-04-24T19:04:38;17.45;60.43
69464;DHT22;56665;41.106;16.688;2023-04-24T19:07:41;17.41;60.66
69464;DHT22;56665;41.106;16.688;2023-04-24T19:10:45;17.35;60.91
69464;DHT22;56665;41.106;16.688;2023-04-24T19:13:50;17.35;61.33
69464;DHT22;56665;41.106;16.688;2023-04-24T19:16:57;17.28;61.62
69464;DHT22;56665;41.106;16.688;2023-04-24T19:20:01;17.23;61.61
69464;DHT22;56665;41.106;16.688;2023-04-24T19:23:06;17.18;61.49